sensor_id;sensor_type;location;lat;lon;timestamp;P1;durP1;ratioP1;P2;durP2;ratioP2
54959;SDS011;40860;51.710;8.736;2022-08-30T00:00:19;4.28;;;3.60;;
54959;SDS011;40860;51.710;8.736;2022-08-30T00:04:40;4.53;;;3.17;;
54959;SDS011;40860;51.710;8.736;2022-08-30T00:08:46;3.42;;;3.13;;
54959;SDS011;40860;51.710;8.736;2022-08-30T00:12:50;4.30;;;3.28;;
54959;SDS011;40860;51.710;8.736;2022-08-30T00:16:53;4.10;;;3.30;;
54959;SDS011;40860;51.710;8.736;2022-08-30T00:20:56;4.40;;;2.88;;
54959;SDS011;40860;51.710;8.736;2022-08-30T00:25:00;4.07;;;3.40;;
54959;SDS011;40860;51.710;8.736;2022-08-30T00:29:03;4.45;;;3.25;;
54959;SDS011;40860;51.710;8.736;2022-08-30T00:33:06;3.58;;;3.15;;
54959;SDS011;40860;51.710;8.736;2022-08-30T00:37:09;3.88;;;3.03;;
54959;SDS011;40860;51.710;8.736;2022-08-30T00:41:13;4.97;;;3.20;;
54959;SDS011;40860;51.710;8.736;2022-08-30T00:45:17;5.35;;;3.53;;
54959;SDS011;40860;51.710;8.736;2022-08-30T00:49:22;4.45;;;3.35;;
54959;SDS011;40860;51.710;8.736;2022-08-30T00:53:26;3.45;;;3.13;;
54959;SDS011;40860;51.710;8.736;2022-08-30T00:57:33;3.53;;;3.20;;
54959;SDS011;40860;51.710;8.736;2022-08-30T01:01:37;3.15;;;2.85;;
54959;SDS011;40860;51.710;8.736;2022-08-30T01:05:40;4.63;;;3.13;;
54959;SDS011;40860;51.710;8.736;2022-08-30T01:09:43;4.45;;;3.40;;
54959;SDS011;40860;51.710;8.736;2022-08-30T01:13:48;4.50;;;3.05;;
54959;SDS011;40860;51.710;8.736;2022-08-30T01:17:54;3.47;;;3.03;;
54959;SDS011;40860;51.710;8.736;2022-08-30T01:21:59;5.05;;;3.13;;
54959;SDS011;40860;51.710;8.736;2022-08-30T01:26:08;3.80;;;3.00;;
54959;SDS011;40860;51.710;8.736;2022-08-30T01:30:11;3.70;;;2.90;;
54959;SDS011;40860;51.710;8.736;2022-08-30T01:34:15;4.05;;;2.90;;
54959;SDS011;40860;51.710;8.736;2022-08-30T01:38:19;4.65;;;3.03;;
54959;SDS011;40860;51.710;8.736;2022-08-30T01:42:24;3.10;;;2.80;;
54959;SDS011;40860;51.710;8.736;2022-08-30T01:46:29;4.80;;;3.05;;
54959;SDS011;40860;51.710;8.736;2022-08-30T01:50:36;3.50;;;3.20;;
54959;SDS011;40860;51.710;8.736;2022-08-30T01:54:42;3.58;;;3.28;;
54959;SDS011;40860;51.710;8.736;2022-08-30T01:58:47;3.30;;;3.00;;
54959;SDS011;40860;51.710;8.736;2022-08-30T02:02:50;4.32;;;2.97;;
54959;SDS011;40860;51.710;8.736;2022-08-30T02:06:53;3.03;;;2.78;;
54959;SDS011;40860;51.710;8.736;2022-08-30T02:10:56;3.13;;;2.90;;
54959;SDS011;40860;51.710;8.736;2022-08-30T02:15:01;3.35;;;3.13;;
54959;SDS011;40860;51.710;8.736;2022-08-30T02:19:04;3.30;;;3.05;;
54959;SDS011;40860;51.710;8.736;2022-08-30T02:23:07;3.90;;;3.17;;
54959;SDS011;40860;51.710;8.736;2022-08-30T02:27:10;3.30;;;3.00;;
54959;SDS011;40860;51.710;8.736;2022-08-30T02:31:14;4.63;;;3.28;;
54959;SDS011;40860;51.710;8.736;2022-08-30T02:35:19;2.95;;;2.75;;
54959;SDS011;40860;51.710;8.736;2022-08-30T02:39:22;3.30;;;3.00;;
54959;SDS011;40860;51.710;8.736;2022-08-30T02:43:25;4.38;;;3.10;;
54959;SDS011;40860;51.710;8.736;2022-08-30T02:47:29;3.30;;;3.00;;
54959;SDS011;40860;51.710;8.736;2022-08-30T02:51:32;3.80;;;2.50;;
54959;SDS011;40860;51.710;8.736;2022-08-30T02:55:36;3.60;;;2.60;;
54959;SDS011;40860;51.710;8.736;2022-08-30T02:59:38;2.70;;;2.50;;
54959;SDS011;40860;51.710;8.736;2022-08-30T03:03:45;3.83;;;2.75;;
54959;SDS011;40860;51.710;8.736;2022-08-30T03:07:48;2.63;;;2.42;;
54959;SDS011;40860;51.710;8.736;2022-08-30T03:11:51;4.72;;;2.80;;
54959;SDS011;40860;51.710;8.736;2022-08-30T03:15:54;2.83;;;2.63;;
54959;SDS011;40860;51.710;8.736;2022-08-30T03:19:59;4.47;;;2.60;;
54959;SDS011;40860;51.710;8.736;2022-08-30T03:24:02;2.90;;;2.70;;
54959;SDS011;40860;51.710;8.736;2022-08-30T03:28:06;2.70;;;2.33;;
54959;SDS011;40860;51.710;8.736;2022-08-30T03:32:08;3.22;;;2.50;;
54959;SDS011;40860;51.710;8.736;2022-08-30T03:36:13;2.70;;;2.50;;
54959;SDS011;40860;51.710;8.736;2022-08-30T03:40:16;3.95;;;2.60;;
54959;SDS011;40860;51.710;8.736;2022-08-30T03:44:21;4.05;;;2.83;;
54959;SDS011;40860;51.710;8.736;2022-08-30T03:48:24;3.38;;;2.30;;
54959;SDS011;40860;51.710;8.736;2022-08-30T03:52:28;3.72;;;2.95;;
54959;SDS011;40860;51.710;8.736;2022-08-30T03:56:31;4.03;;;3.45;;
54959;SDS011;40860;51.710;8.736;2022-08-30T04:00:34;5.47;;;4.50;;
54959;SDS011;40860;51.710;8.736;2022-08-30T04:04:37;4.65;;;3.53;;
54959;SDS011;40860;51.710;8.736;2022-08-30T04:08:41;4.88;;;3.65;;
54959;SDS011;40860;51.710;8.736;2022-08-30T04:12:46;4.07;;;3.70;;
54959;SDS011;40860;51.710;8.736;2022-08-30T04:16:50;5.15;;;3.10;;
54959;SDS011;40860;51.710;8.736;2022-08-30T04:20:53;4.00;;;2.95;;
54959;SDS011;40860;51.710;8.736;2022-08-30T04:24:58;4.78;;;3.35;;
54959;SDS011;40860;51.710;8.736;2022-08-30T04:29:01;5.90;;;3.33;;
54959;SDS011;40860;51.710;8.736;2022-08-30T04:33:03;3.45;;;3.15;;
54959;SDS011;40860;51.710;8.736;2022-08-30T04:37:06;3.60;;;3.30;;
54959;SDS011;40860;51.710;8.736;2022-08-30T04:41:13;4.90;;;4.00;;
54959;SDS011;40860;51.710;8.736;2022-08-30T04:45:21;4.32;;;3.70;;
54959;SDS011;40860;51.710;8.736;2022-08-30T04:49:24;5.28;;;3.75;;
54959;SDS011;40860;51.710;8.736;2022-08-30T04:53:26;9.00;;;4.55;;
54959;SDS011;40860;51.710;8.736;2022-08-30T04:57:31;6.78;;;4.60;;
54959;SDS011;40860;51.710;8.736;2022-08-30T05:01:34;20.15;;;9.50;;
54959;SDS011;40860;51.710;8.736;2022-08-30T05:05:46;10.40;;;6.35;;
54959;SDS011;40860;51.710;8.736;2022-08-30T05:09:50;7.05;;;4.80;;
54959;SDS011;40860;51.710;8.736;2022-08-30T05:13:54;8.93;;;5.70;;
54959;SDS011;40860;51.710;8.736;2022-08-30T05:17:57;7.40;;;5.40;;
54959;SDS011;40860;51.710;8.736;2022-08-30T05:22:00;6.95;;;4.80;;
54959;SDS011;40860;51.710;8.736;2022-08-30T05:26:04;7.97;;;5.78;;
54959;SDS011;40860;51.710;8.736;2022-08-30T05:30:10;7.65;;;5.70;;
54959;SDS011;40860;51.710;8.736;2022-08-30T05:34:14;8.07;;;5.40;;
54959;SDS011;40860;51.710;8.736;2022-08-30T05:38:16;5.93;;;4.72;;
54959;SDS011;40860;51.710;8.736;2022-08-30T05:42:19;8.05;;;5.40;;
54959;SDS011;40860;51.710;8.736;2022-08-30T05:46:24;7.97;;;4.60;;
54959;SDS011;40860;51.710;8.736;2022-08-30T05:50:29;8.80;;;5.25;;
54959;SDS011;40860;51.710;8.736;2022-08-30T05:54:37;9.95;;;5.32;;
54959;SDS011;40860;51.710;8.736;2022-08-30T05:58:40;6.40;;;4.95;;
54959;SDS011;40860;51.710;8.736;2022-08-30T06:02:44;6.97;;;4.97;;
54959;SDS011;40860;51.710;8.736;2022-08-30T06:06:47;9.32;;;4.85;;
54959;SDS011;40860;51.710;8.736;2022-08-30T06:10:50;8.35;;;5.05;;
54959;SDS011;40860;51.710;8.736;2022-08-30T06:14:54;8.20;;;5.22;;
54959;SDS011;40860;51.710;8.736;2022-08-30T06:18:58;8.48;;;5.03;;
54959;SDS011;40860;51.710;8.736;2022-08-30T06:23:01;5.63;;;5.10;;
54959;SDS011;40860;51.710;8.736;2022-08-30T06:27:04;10.88;;;5.57;;
54959;SDS011;40860;51.710;8.736;2022-08-30T06:31:08;7.60;;;5.45;;
54959;SDS011;40860;51.710;8.736;2022-08-30T06:35:13;8.35;;;5.38;;
54959;SDS011;40860;51.710;8.736;2022-08-30T06:39:16;6.10;;;4.80;;
54959;SDS011;40860;51.710;8.736;2022-08-30T06:43:18;5.55;;;4.63;;
54959;SDS011;40860;51.710;8.736;2022-08-30T06:47:21;4.85;;;4.45;;
54959;SDS011;40860;51.710;8.736;2022-08-30T06:51:26;9.27;;;5.25;;
54959;SDS011;40860;51.710;8.736;2022-08-30T06:55:31;10.80;;;4.90;;
54959;SDS011;40860;51.710;8.736;2022-08-30T06:59:34;6.68;;;4.65;;
54959;SDS011;40860;51.710;8.736;2022-08-30T07:03:37;6.53;;;4.28;;
54959;SDS011;40860;51.710;8.736;2022-08-30T07:07:41;7.10;;;4.25;;
54959;SDS011;40860;51.710;8.736;2022-08-30T07:11:44;6.68;;;4.30;;
54959;SDS011;40860;51.710;8.736;2022-08-30T07:15:47;12.02;;;5.20;;
54959;SDS011;40860;51.710;8.736;2022-08-30T07:19:50;5.55;;;4.63;;
54959;SDS011;40860;51.710;8.736;2022-08-30T07:23:55;6.75;;;4.28;;
54959;SDS011;40860;51.710;8.736;2022-08-30T07:27:59;5.60;;;4.47;;
54959;SDS011;40860;51.710;8.736;2022-08-30T07:32:02;5.63;;;4.97;;
54959;SDS011;40860;51.710;8.736;2022-08-30T07:36:06;6.88;;;4.10;;
54959;SDS011;40860;51.710;8.736;2022-08-30T07:40:11;6.55;;;4.18;;
54959;SDS011;40860;51.710;8.736;2022-08-30T07:44:14;4.50;;;4.10;;
54959;SDS011;40860;51.710;8.736;2022-08-30T07:48:17;7.13;;;4.28;;
54959;SDS011;40860;51.710;8.736;2022-08-30T07:52:19;5.95;;;4.55;;
54959;SDS011;40860;51.710;8.736;2022-08-30T07:56:24;7.70;;;3.90;;
54959;SDS011;40860;51.710;8.736;2022-08-30T08:00:27;4.70;;;4.10;;
54959;SDS011;40860;51.710;8.736;2022-08-30T08:04:29;4.88;;;4.38;;
54959;SDS011;40860;51.710;8.736;2022-08-30T08:08:33;5.57;;;4.53;;
54959;SDS011;40860;51.710;8.736;2022-08-30T08:12:38;7.22;;;4.18;;
54959;SDS011;40860;51.710;8.736;2022-08-30T08:16:41;5.65;;;4.13;;
54959;SDS011;40860;51.710;8.736;2022-08-30T08:20:44;3.95;;;3.65;;
54959;SDS011;40860;51.710;8.736;2022-08-30T08:24:48;4.88;;;4.35;;
54959;SDS011;40860;51.710;8.736;2022-08-30T08:28:52;5.45;;;4.05;;
54959;SDS011;40860;51.710;8.736;2022-08-30T08:32:55;5.45;;;4.72;;
54959;SDS011;40860;51.710;8.736;2022-08-30T08:36:58;5.00;;;4.60;;
54959;SDS011;40860;51.710;8.736;2022-08-30T08:41:02;4.88;;;4.40;;
54959;SDS011;40860;51.710;8.736;2022-08-30T08:45:12;5.20;;;4.07;;
54959;SDS011;40860;51.710;8.736;2022-08-30T08:49:19;6.63;;;5.60;;
54959;SDS011;40860;51.710;8.736;2022-08-30T08:53:25;6.55;;;5.93;;
54959;SDS011;40860;51.710;8.736;2022-08-30T08:57:47;9.73;;;6.80;;
54959;SDS011;40860;51.710;8.736;2022-08-30T09:01:53;6.25;;;5.40;;
54959;SDS011;40860;51.710;8.736;2022-08-30T09:05:59;6.78;;;6.07;;
54959;SDS011;40860;51.710;8.736;2022-08-30T09:10:05;9.73;;;5.70;;
54959;SDS011;40860;51.710;8.736;2022-08-30T09:14:11;6.13;;;5.30;;
54959;SDS011;40860;51.710;8.736;2022-08-30T09:18:18;8.10;;;6.10;;
54959;SDS011;40860;51.710;8.736;2022-08-30T09:22:23;6.57;;;5.10;;
54959;SDS011;40860;51.710;8.736;2022-08-30T09:26:28;6.05;;;5.53;;
54959;SDS011;40860;51.710;8.736;2022-08-30T09:30:33;8.30;;;5.95;;
54959;SDS011;40860;51.710;8.736;2022-08-30T09:34:38;6.30;;;5.68;;
54959;SDS011;40860;51.710;8.736;2022-08-30T09:38:45;7.40;;;5.97;;
54959;SDS011;40860;51.710;8.736;2022-08-30T09:42:58;7.22;;;6.55;;
54959;SDS011;40860;51.710;8.736;2022-08-30T09:47:04;7.50;;;6.05;;
54959;SDS011;40860;51.710;8.736;2022-08-30T09:51:31;10.23;;;6.50;;
54959;SDS011;40860;51.710;8.736;2022-08-30T09:55:46;7.90;;;6.18;;
54959;SDS011;40860;51.710;8.736;2022-08-30T09:59:58;6.65;;;6.05;;
54959;SDS011;40860;51.710;8.736;2022-08-30T10:04:07;9.32;;;6.82;;
54959;SDS011;40860;51.710;8.736;2022-08-30T10:08:19;8.50;;;6.20;;
54959;SDS011;40860;51.710;8.736;2022-08-30T10:12:28;9.00;;;6.43;;
54959;SDS011;40860;51.710;8.736;2022-08-30T10:16:42;9.20;;;6.45;;
54959;SDS011;40860;51.710;8.736;2022-08-30T10:20:53;5.82;;;5.10;;
54959;SDS011;40860;51.710;8.736;2022-08-30T10:25:02;6.00;;;5.40;;
54959;SDS011;40860;51.710;8.736;2022-08-30T10:29:09;9.70;;;5.95;;
54959;SDS011;40860;51.710;8.736;2022-08-30T10:33:17;8.20;;;5.65;;
54959;SDS011;40860;51.710;8.736;2022-08-30T10:37:26;8.82;;;6.30;;
54959;SDS011;40860;51.710;8.736;2022-08-30T10:41:34;6.90;;;5.30;;
54959;SDS011;40860;51.710;8.736;2022-08-30T10:45:41;6.00;;;5.32;;
54959;SDS011;40860;51.710;8.736;2022-08-30T10:49:46;7.68;;;4.90;;
54959;SDS011;40860;51.710;8.736;2022-08-30T10:53:51;9.52;;;6.00;;
54959;SDS011;40860;51.710;8.736;2022-08-30T10:58:00;5.95;;;4.55;;
54959;SDS011;40860;51.710;8.736;2022-08-30T11:02:12;5.32;;;3.75;;
54959;SDS011;40860;51.710;8.736;2022-08-30T11:06:26;4.15;;;3.75;;
54959;SDS011;40860;51.710;8.736;2022-08-30T11:10:40;5.28;;;4.30;;
54959;SDS011;40860;51.710;8.736;2022-08-30T11:14:52;5.20;;;3.97;;
54959;SDS011;40860;51.710;8.736;2022-08-30T11:18:55;4.07;;;3.80;;
54959;SDS011;40860;51.710;8.736;2022-08-30T11:23:14;9.20;;;4.60;;
54959;SDS011;40860;51.710;8.736;2022-08-30T11:27:44;7.43;;;4.95;;
54959;SDS011;40860;51.710;8.736;2022-08-30T11:31:53;5.43;;;4.43;;
54959;SDS011;40860;51.710;8.736;2022-08-30T11:35:58;5.63;;;4.07;;
54959;SDS011;40860;51.710;8.736;2022-08-30T11:40:02;5.07;;;3.75;;
54959;SDS011;40860;51.710;8.736;2022-08-30T11:44:25;5.60;;;4.30;;
54959;SDS011;40860;51.710;8.736;2022-08-30T11:48:39;4.93;;;4.53;;
54959;SDS011;40860;51.710;8.736;2022-08-30T11:52:55;6.45;;;4.07;;
54959;SDS011;40860;51.710;8.736;2022-08-30T11:57:05;10.40;;;4.55;;
54959;SDS011;40860;51.710;8.736;2022-08-30T12:01:16;5.85;;;3.95;;
54959;SDS011;40860;51.710;8.736;2022-08-30T12:05:47;6.82;;;3.85;;
54959;SDS011;40860;51.710;8.736;2022-08-30T12:10:00;4.38;;;3.47;;
54959;SDS011;40860;51.710;8.736;2022-08-30T12:14:06;5.18;;;3.90;;
54959;SDS011;40860;51.710;8.736;2022-08-30T12:18:33;4.55;;;3.70;;
54959;SDS011;40860;51.710;8.736;2022-08-30T12:22:44;5.32;;;3.78;;
54959;SDS011;40860;51.710;8.736;2022-08-30T12:26:48;5.25;;;3.38;;
54959;SDS011;40860;51.710;8.736;2022-08-30T12:30:53;4.40;;;3.17;;
54959;SDS011;40860;51.710;8.736;2022-08-30T12:34:57;4.57;;;3.53;;
54959;SDS011;40860;51.710;8.736;2022-08-30T12:39:04;4.78;;;3.55;;
54959;SDS011;40860;51.710;8.736;2022-08-30T12:43:15;4.25;;;3.60;;
54959;SDS011;40860;51.710;8.736;2022-08-30T12:47:27;5.47;;;3.28;;
54959;SDS011;40860;51.710;8.736;2022-08-30T12:51:38;3.45;;;3.15;;
54959;SDS011;40860;51.710;8.736;2022-08-30T12:55:49;4.07;;;3.00;;
54959;SDS011;40860;51.710;8.736;2022-08-30T12:59:54;5.32;;;3.17;;
54959;SDS011;40860;51.710;8.736;2022-08-30T13:04:10;5.03;;;3.20;;
54959;SDS011;40860;51.710;8.736;2022-08-30T13:08:18;3.60;;;3.00;;
54959;SDS011;40860;51.710;8.736;2022-08-30T13:12:23;3.88;;;2.75;;
54959;SDS011;40860;51.710;8.736;2022-08-30T13:16:34;3.45;;;2.60;;
54959;SDS011;40860;51.710;8.736;2022-08-30T13:20:45;5.00;;;3.00;;
54959;SDS011;40860;51.710;8.736;2022-08-30T13:24:50;3.55;;;2.70;;
54959;SDS011;40860;51.710;8.736;2022-08-30T13:28:55;3.92;;;3.10;;
54959;SDS011;40860;51.710;8.736;2022-08-30T13:32:59;3.40;;;2.83;;
54959;SDS011;40860;51.710;8.736;2022-08-30T13:37:02;4.15;;;3.50;;
54959;SDS011;40860;51.710;8.736;2022-08-30T13:41:07;3.58;;;3.28;;
54959;SDS011;40860;51.710;8.736;2022-08-30T13:45:11;9.43;;;3.80;;
54959;SDS011;40860;51.710;8.736;2022-08-30T13:49:36;4.70;;;3.10;;
54959;SDS011;40860;51.710;8.736;2022-08-30T13:53:46;3.78;;;3.00;;
54959;SDS011;40860;51.710;8.736;2022-08-30T13:57:55;5.63;;;3.45;;
54959;SDS011;40860;51.710;8.736;2022-08-30T14:01:58;3.78;;;3.40;;
54959;SDS011;40860;51.710;8.736;2022-08-30T14:06:11;3.78;;;2.88;;
54959;SDS011;40860;51.710;8.736;2022-08-30T14:10:33;3.80;;;3.25;;
54959;SDS011;40860;51.710;8.736;2022-08-30T14:14:48;3.50;;;3.00;;
54959;SDS011;40860;51.710;8.736;2022-08-30T14:19:12;5.50;;;3.30;;
54959;SDS011;40860;51.710;8.736;2022-08-30T14:23:18;5.13;;;3.50;;
54959;SDS011;40860;51.710;8.736;2022-08-30T14:27:21;5.28;;;2.90;;
54959;SDS011;40860;51.710;8.736;2022-08-30T14:31:28;5.13;;;2.65;;
54959;SDS011;40860;51.710;8.736;2022-08-30T14:35:33;2.97;;;2.58;;
54959;SDS011;40860;51.710;8.736;2022-08-30T14:39:36;4.60;;;2.75;;
54959;SDS011;40860;51.710;8.736;2022-08-30T14:43:40;3.10;;;2.70;;
54959;SDS011;40860;51.710;8.736;2022-08-30T14:47:45;2.92;;;2.63;;
54959;SDS011;40860;51.710;8.736;2022-08-30T14:51:47;6.25;;;3.17;;
54959;SDS011;40860;51.710;8.736;2022-08-30T14:55:51;3.45;;;2.22;;
54959;SDS011;40860;51.710;8.736;2022-08-30T14:59:54;2.95;;;2.38;;
54959;SDS011;40860;51.710;8.736;2022-08-30T15:03:58;2.50;;;2.30;;
54959;SDS011;40860;51.710;8.736;2022-08-30T15:08:01;2.95;;;2.30;;
54959;SDS011;40860;51.710;8.736;2022-08-30T15:12:05;2.53;;;2.30;;
54959;SDS011;40860;51.710;8.736;2022-08-30T15:16:08;4.38;;;2.22;;
54959;SDS011;40860;51.710;8.736;2022-08-30T15:20:15;2.72;;;2.20;;
54959;SDS011;40860;51.710;8.736;2022-08-30T15:24:22;3.85;;;2.92;;
54959;SDS011;40860;51.710;8.736;2022-08-30T15:28:30;2.33;;;2.10;;
54959;SDS011;40860;51.710;8.736;2022-08-30T15:32:33;3.30;;;1.90;;
54959;SDS011;40860;51.710;8.736;2022-08-30T15:36:37;3.80;;;2.03;;
54959;SDS011;40860;51.710;8.736;2022-08-30T15:40:43;39.40;;;4.78;;
54959;SDS011;40860;51.710;8.736;2022-08-30T15:48:52;3.28;;;2.25;;
54959;SDS011;40860;51.710;8.736;2022-08-30T15:52:58;2.03;;;1.90;;
54959;SDS011;40860;51.710;8.736;2022-08-30T15:57:02;2.20;;;1.98;;
54959;SDS011;40860;51.710;8.736;2022-08-30T16:01:06;3.88;;;2.47;;
54959;SDS011;40860;51.710;8.736;2022-08-30T16:05:09;3.55;;;2.10;;
54959;SDS011;40860;51.710;8.736;2022-08-30T16:09:14;2.60;;;1.90;;
54959;SDS011;40860;51.710;8.736;2022-08-30T16:13:18;2.30;;;2.10;;
54959;SDS011;40860;51.710;8.736;2022-08-30T16:17:21;4.30;;;2.33;;
54959;SDS011;40860;51.710;8.736;2022-08-30T16:21:24;2.95;;;1.80;;
54959;SDS011;40860;51.710;8.736;2022-08-30T16:25:30;2.03;;;1.90;;
54959;SDS011;40860;51.710;8.736;2022-08-30T16:29:41;5.10;;;2.25;;
54959;SDS011;40860;51.710;8.736;2022-08-30T16:33:44;2.85;;;2.00;;
54959;SDS011;40860;51.710;8.736;2022-08-30T16:37:52;2.50;;;2.08;;
54959;SDS011;40860;51.710;8.736;2022-08-30T16:41:56;5.43;;;2.00;;
54959;SDS011;40860;51.710;8.736;2022-08-30T16:46:04;2.65;;;2.13;;
54959;SDS011;40860;51.710;8.736;2022-08-30T16:50:09;2.45;;;2.08;;
54959;SDS011;40860;51.710;8.736;2022-08-30T16:54:12;2.53;;;2.00;;
54959;SDS011;40860;51.710;8.736;2022-08-30T16:58:17;2.63;;;2.35;;
54959;SDS011;40860;51.710;8.736;2022-08-30T17:02:22;4.18;;;3.10;;
54959;SDS011;40860;51.710;8.736;2022-08-30T17:06:25;2.58;;;2.17;;
54959;SDS011;40860;51.710;8.736;2022-08-30T17:10:29;6.13;;;2.45;;
54959;SDS011;40860;51.710;8.736;2022-08-30T17:14:35;2.00;;;1.90;;
54959;SDS011;40860;51.710;8.736;2022-08-30T17:18:37;5.22;;;2.47;;
54959;SDS011;40860;51.710;8.736;2022-08-30T17:22:42;2.75;;;2.00;;
54959;SDS011;40860;51.710;8.736;2022-08-30T17:26:46;1.92;;;1.73;;
54959;SDS011;40860;51.710;8.736;2022-08-30T17:30:50;4.10;;;1.95;;
54959;SDS011;40860;51.710;8.736;2022-08-30T17:34:53;2.80;;;2.50;;
54959;SDS011;40860;51.710;8.736;2022-08-30T17:38:57;3.90;;;2.35;;
54959;SDS011;40860;51.710;8.736;2022-08-30T17:42:59;3.03;;;2.03;;
54959;SDS011;40860;51.710;8.736;2022-08-30T17:47:04;2.33;;;1.90;;
54959;SDS011;40860;51.710;8.736;2022-08-30T17:51:07;2.95;;;2.22;;
54959;SDS011;40860;51.710;8.736;2022-08-30T17:55:10;3.65;;;2.13;;
54959;SDS011;40860;51.710;8.736;2022-08-30T17:59:14;3.03;;;2.35;;
54959;SDS011;40860;51.710;8.736;2022-08-30T18:03:21;4.47;;;2.50;;
54959;SDS011;40860;51.710;8.736;2022-08-30T18:07:24;5.03;;;2.83;;
54959;SDS011;40860;51.710;8.736;2022-08-30T18:11:27;3.70;;;2.80;;
54959;SDS011;40860;51.710;8.736;2022-08-30T18:15:30;2.53;;;2.33;;
54959;SDS011;40860;51.710;8.736;2022-08-30T18:19:34;4.72;;;2.92;;
54959;SDS011;40860;51.710;8.736;2022-08-30T18:23:46;4.18;;;2.83;;
54959;SDS011;40860;51.710;8.736;2022-08-30T18:27:51;2.40;;;2.20;;
54959;SDS011;40860;51.710;8.736;2022-08-30T18:32:00;4.38;;;2.80;;
54959;SDS011;40860;51.710;8.736;2022-08-30T18:36:05;2.40;;;2.17;;
54959;SDS011;40860;51.710;8.736;2022-08-30T18:40:09;3.10;;;2.70;;
54959;SDS011;40860;51.710;8.736;2022-08-30T18:44:19;4.72;;;2.88;;
54959;SDS011;40860;51.710;8.736;2022-08-30T18:48:34;3.30;;;3.00;;
54959;SDS011;40860;51.710;8.736;2022-08-30T18:52:38;2.85;;;2.33;;
54959;SDS011;40860;51.710;8.736;2022-08-30T18:56:45;3.92;;;3.13;;
54959;SDS011;40860;51.710;8.736;2022-08-30T19:00:49;3.08;;;2.78;;
54959;SDS011;40860;51.710;8.736;2022-08-30T19:04:53;6.05;;;3.10;;
54959;SDS011;40860;51.710;8.736;2022-08-30T19:08:57;4.80;;;3.00;;
54959;SDS011;40860;51.710;8.736;2022-08-30T19:13:00;4.22;;;3.40;;
54959;SDS011;40860;51.710;8.736;2022-08-30T19:17:04;5.20;;;3.38;;
54959;SDS011;40860;51.710;8.736;2022-08-30T19:21:07;3.50;;;2.72;;
54959;SDS011;40860;51.710;8.736;2022-08-30T19:25:16;8.85;;;3.70;;
54959;SDS011;40860;51.710;8.736;2022-08-30T19:29:20;4.40;;;3.35;;
54959;SDS011;40860;51.710;8.736;2022-08-30T19:33:24;5.50;;;3.08;;
54959;SDS011;40860;51.710;8.736;2022-08-30T19:37:27;4.82;;;3.10;;
54959;SDS011;40860;51.710;8.736;2022-08-30T19:41:32;4.90;;;3.03;;
54959;SDS011;40860;51.710;8.736;2022-08-30T19:45:36;4.72;;;3.15;;
54959;SDS011;40860;51.710;8.736;2022-08-30T19:49:39;4.15;;;2.83;;
54959;SDS011;40860;51.710;8.736;2022-08-30T19:53:42;4.45;;;3.05;;
54959;SDS011;40860;51.710;8.736;2022-08-30T19:57:46;3.63;;;3.15;;
54959;SDS011;40860;51.710;8.736;2022-08-30T20:01:49;4.55;;;3.22;;
54959;SDS011;40860;51.710;8.736;2022-08-30T20:05:52;7.80;;;3.55;;
54959;SDS011;40860;51.710;8.736;2022-08-30T20:09:55;5.82;;;3.42;;
54959;SDS011;40860;51.710;8.736;2022-08-30T20:14:01;5.70;;;3.63;;
54959;SDS011;40860;51.710;8.736;2022-08-30T20:18:04;3.90;;;3.42;;
54959;SDS011;40860;51.710;8.736;2022-08-30T20:22:16;4.20;;;3.05;;
54959;SDS011;40860;51.710;8.736;2022-08-30T20:26:19;4.18;;;3.20;;
54959;SDS011;40860;51.710;8.736;2022-08-30T20:30:35;4.03;;;3.63;;
54959;SDS011;40860;51.710;8.736;2022-08-30T20:34:38;8.60;;;4.40;;
54959;SDS011;40860;51.710;8.736;2022-08-30T20:38:40;7.55;;;3.60;;
54959;SDS011;40860;51.710;8.736;2022-08-30T20:42:43;4.43;;;3.72;;
54959;SDS011;40860;51.710;8.736;2022-08-30T20:46:48;5.63;;;3.50;;
54959;SDS011;40860;51.710;8.736;2022-08-30T20:50:51;3.15;;;2.85;;
54959;SDS011;40860;51.710;8.736;2022-08-30T20:54:53;2.85;;;2.65;;
54959;SDS011;40860;51.710;8.736;2022-08-30T20:58:56;4.18;;;3.13;;
54959;SDS011;40860;51.710;8.736;2022-08-30T21:03:04;3.67;;;2.72;;
54959;SDS011;40860;51.710;8.736;2022-08-30T21:07:27;5.53;;;3.25;;
54959;SDS011;40860;51.710;8.736;2022-08-30T21:11:30;3.10;;;2.28;;
54959;SDS011;40860;51.710;8.736;2022-08-30T21:15:34;3.05;;;2.75;;
54959;SDS011;40860;51.710;8.736;2022-08-30T21:19:40;6.35;;;2.70;;
54959;SDS011;40860;51.710;8.736;2022-08-30T21:23:44;3.90;;;2.45;;
54959;SDS011;40860;51.710;8.736;2022-08-30T21:27:47;4.18;;;2.90;;
54959;SDS011;40860;51.710;8.736;2022-08-30T21:31:50;3.00;;;2.17;;
54959;SDS011;40860;51.710;8.736;2022-08-30T21:35:56;2.30;;;2.10;;
54959;SDS011;40860;51.710;8.736;2022-08-30T21:44:23;3.85;;;2.20;;
54959;SDS011;40860;51.710;8.736;2022-08-30T21:48:27;4.43;;;2.00;;
54959;SDS011;40860;51.710;8.736;2022-08-30T21:52:32;2.67;;;1.40;;
54959;SDS011;40860;51.710;8.736;2022-08-30T21:56:36;1.73;;;1.58;;
54959;SDS011;40860;51.710;8.736;2022-08-30T22:00:41;2.10;;;1.40;;
54959;SDS011;40860;51.710;8.736;2022-08-30T22:04:43;3.45;;;1.45;;
54959;SDS011;40860;51.710;8.736;2022-08-30T22:08:47;3.17;;;1.70;;
54959;SDS011;40860;51.710;8.736;2022-08-30T22:12:53;2.55;;;1.40;;
54959;SDS011;40860;51.710;8.736;2022-08-30T22:16:56;2.67;;;1.50;;
54959;SDS011;40860;51.710;8.736;2022-08-30T22:20:59;2.75;;;1.73;;
54959;SDS011;40860;51.710;8.736;2022-08-30T22:25:08;1.85;;;1.70;;
54959;SDS011;40860;51.710;8.736;2022-08-30T22:29:12;3.38;;;1.90;;
54959;SDS011;40860;51.710;8.736;2022-08-30T22:33:16;3.58;;;1.30;;
54959;SDS011;40860;51.710;8.736;2022-08-30T22:37:20;3.88;;;1.50;;
54959;SDS011;40860;51.710;8.736;2022-08-30T22:41:24;1.30;;;1.20;;
54959;SDS011;40860;51.710;8.736;2022-08-30T22:45:31;3.78;;;1.50;;
54959;SDS011;40860;51.710;8.736;2022-08-30T22:49:34;2.35;;;1.40;;
54959;SDS011;40860;51.710;8.736;2022-08-30T22:53:37;6.00;;;1.80;;
54959;SDS011;40860;51.710;8.736;2022-08-30T22:57:42;3.03;;;1.67;;
54959;SDS011;40860;51.710;8.736;2022-08-30T23:01:44;3.42;;;1.65;;
54959;SDS011;40860;51.710;8.736;2022-08-30T23:05:47;1.90;;;1.70;;
54959;SDS011;40860;51.710;8.736;2022-08-30T23:09:50;1.67;;;1.45;;
54959;SDS011;40860;51.710;8.736;2022-08-30T23:13:54;3.70;;;1.65;;
54959;SDS011;40860;51.710;8.736;2022-08-30T23:17:57;1.73;;;1.23;;
54959;SDS011;40860;51.710;8.736;2022-08-30T23:22:00;2.28;;;1.60;;
54959;SDS011;40860;51.710;8.736;2022-08-30T23:26:03;2.88;;;1.80;;
54959;SDS011;40860;51.710;8.736;2022-08-30T23:30:25;1.80;;;1.70;;
54959;SDS011;40860;51.710;8.736;2022-08-30T23:34:45;2.65;;;1.70;;
54959;SDS011;40860;51.710;8.736;2022-08-30T23:39:06;1.67;;;1.45;;
54959;SDS011;40860;51.710;8.736;2022-08-30T23:43:27;1.70;;;1.60;;
54959;SDS011;40860;51.710;8.736;2022-08-30T23:47:48;2.00;;;1.70;;
54959;SDS011;40860;51.710;8.736;2022-08-30T23:52:09;2.50;;;1.92;;
54959;SDS011;40860;51.710;8.736;2022-08-30T23:56:30;3.25;;;1.95;;
